createdAt,value
2022-09-27T00:02:57.991Z,21.49
2022-09-27T00:07:57.513Z,21.48
2022-09-27T00:12:56.799Z,21.46
2022-09-27T00:17:57.071Z,21.41
2022-09-27T00:22:55.954Z,21.37
2022-09-27T00:27:54.821Z,21.35
2022-09-27T00:32:53.902Z,21.34
2022-09-27T00:37:54.187Z,21.39
2022-09-27T00:42:52.991Z,21.33
2022-09-27T00:47:56.308Z,21.36
2022-09-27T00:53:05.725Z,21.38
2022-09-27T00:58:06.364Z,21.41
2022-09-27T01:03:11.533Z,21.42
2022-09-27T01:08:11.710Z,21.41
2022-09-27T01:13:18.183Z,21.25
2022-09-27T01:18:32.412Z,21.15
2022-09-27T01:23:57.999Z,21.20
2022-09-27T01:29:02.526Z,21.26
2022-09-27T01:34:07.437Z,21.28
2022-09-27T01:39:20.433Z,21.30
2022-09-27T01:44:52.006Z,21.30
2022-09-27T01:50:02.464Z,21.32
2022-09-27T01:55:08.147Z,21.30
2022-09-27T02:00:22.209Z,21.27
2022-09-27T02:05:25.111Z,21.26
2022-09-27T02:10:31.625Z,21.26
2022-09-27T02:15:43.434Z,21.21
2022-09-27T02:20:59.988Z,21.13
2022-09-27T02:26:01.383Z,21.13
2022-09-27T02:31:01.798Z,21.12
2022-09-27T02:36:07.450Z,21.14
2022-09-27T02:41:14.624Z,21.14
2022-09-27T02:46:29.659Z,21.13
2022-09-27T02:51:44.534Z,21.08
2022-09-27T02:56:52.814Z,21.03
2022-09-27T03:02:24.871Z,20.97
2022-09-27T03:07:44.451Z,20.96
2022-09-27T03:12:44.470Z,20.92
2022-09-27T03:17:43.672Z,20.89
2022-09-27T03:23:04.260Z,20.85
2022-09-27T03:28:03.623Z,20.82
2022-09-27T03:33:03.556Z,20.75
2022-09-27T03:38:29.760Z,20.67
2022-09-27T03:43:28.767Z,20.63
2022-09-27T03:48:31.511Z,20.63
2022-09-27T03:53:31.856Z,20.58
2022-09-27T03:58:30.997Z,20.56
2022-09-27T04:03:30.215Z,20.51
2022-09-27T04:09:02.795Z,20.38
2022-09-27T04:14:18.766Z,20.37
2022-09-27T04:19:38.211Z,20.38
2022-09-27T04:24:43.205Z,20.42
2022-09-27T04:30:00.155Z,20.45
2022-09-27T04:35:36.875Z,20.48
2022-09-27T04:40:42.223Z,20.49
2022-09-27T04:45:42.058Z,20.47
2022-09-27T04:50:41.455Z,20.47
2022-09-27T04:55:41.940Z,20.45
2022-09-27T05:00:42.386Z,20.34
2022-09-27T05:06:01.325Z,20.21
2022-09-27T05:11:01.620Z,20.21
2022-09-27T05:16:05.354Z,20.17
2022-09-27T05:21:33.239Z,20.16
2022-09-27T05:26:33.670Z,20.17
2022-09-27T05:31:32.591Z,20.15
2022-09-27T05:36:32.593Z,20.23
2022-09-27T05:41:32.960Z,20.31
2022-09-27T05:46:33.618Z,20.16
2022-09-27T05:51:33.119Z,20.21
2022-09-27T05:56:32.125Z,20.32
2022-09-27T06:01:58.420Z,20.41
2022-09-27T06:07:35.899Z,20.50
2022-09-27T06:12:38.616Z,20.55
2022-09-27T06:17:48.621Z,20.68
2022-09-27T06:22:54.218Z,20.82
2022-09-27T06:27:55.123Z,20.94
2022-09-27T06:33:00.589Z,21.01
2022-09-27T06:38:07.248Z,20.94
2022-09-27T06:43:08.537Z,21.03
2022-09-27T06:48:43.756Z,21.12
2022-09-27T06:53:47.076Z,21.21
2022-09-27T06:59:03.541Z,21.21
2022-09-27T07:04:24.087Z,21.12
2022-09-27T07:09:32.089Z,21.12
2022-09-27T07:14:30.926Z,21.18
2022-09-27T07:19:31.486Z,21.19
2022-09-27T07:24:30.579Z,21.27
2022-09-27T07:29:30.450Z,21.39
2022-09-27T07:34:34.762Z,21.54
2022-09-27T07:39:35.281Z,21.71
2022-09-27T07:44:34.604Z,21.82
2022-09-27T07:50:04.003Z,21.98
2022-09-27T07:55:25.791Z,22.16
2022-09-27T08:00:30.006Z,22.23
2022-09-27T08:05:30.369Z,22.22
2022-09-27T08:10:31.846Z,22.36
2022-09-27T08:15:33.114Z,22.48
2022-09-27T08:20:33.343Z,22.34
2022-09-27T08:25:59.464Z,21.93
2022-09-27T08:31:01.140Z,21.68
2022-09-27T08:36:01.924Z,21.66
2022-09-27T08:41:08.142Z,21.75
2022-09-27T08:46:24.614Z,21.71
2022-09-27T08:51:33.083Z,21.71
2022-09-27T08:56:33.377Z,21.68
2022-09-27T09:01:33.854Z,21.77
2022-09-27T09:06:50.768Z,21.66
2022-09-27T09:12:19.270Z,21.85
2022-09-27T09:17:31.994Z,21.98
2022-09-27T09:23:06.575Z,22.11
2022-09-27T09:28:22.261Z,22.27
2022-09-27T09:33:26.629Z,22.30
2022-09-27T09:38:35.811Z,22.59
2022-09-27T09:43:40.661Z,22.82
2022-09-27T09:48:46.987Z,22.96
2022-09-27T09:53:53.835Z,23.22
2022-09-27T09:59:02.414Z,23.46
2022-09-27T10:04:17.189Z,23.60
2022-09-27T10:09:24.030Z,23.71
2022-09-27T10:15:04.344Z,23.74
2022-09-27T10:20:04.861Z,23.77
2022-09-27T10:25:08.172Z,23.90
2022-09-27T10:30:28.966Z,24.00
2022-09-27T10:35:49.872Z,23.97
2022-09-27T10:41:23.331Z,24.12
2022-09-27T10:46:28.934Z,24.18
2022-09-27T10:51:39.875Z,24.27
2022-09-27T10:56:40.279Z,24.30
2022-09-27T11:01:46.069Z,24.42
2022-09-27T11:06:51.385Z,24.48
2022-09-27T11:11:52.250Z,24.48
2022-09-27T11:17:14.382Z,24.54
2022-09-27T11:22:44.937Z,24.54
2022-09-27T11:28:02.511Z,24.43
2022-09-27T11:33:26.061Z,24.52
2022-09-27T11:38:51.774Z,24.59
2022-09-27T11:44:02.849Z,24.59
2022-09-27T11:49:15.160Z,24.62
2022-09-27T11:54:31.873Z,24.58
2022-09-27T12:00:05.901Z,24.85
2022-09-27T12:05:31.390Z,25.17
2022-09-27T12:10:37.108Z,25.39
2022-09-27T12:15:40.979Z,25.49
2022-09-27T12:20:43.478Z,25.59
2022-09-27T12:25:47.004Z,25.61
2022-09-27T12:31:17.662Z,25.44
2022-09-27T12:36:24.638Z,25.30
2022-09-27T12:41:26.564Z,25.15
2022-09-27T12:46:58.715Z,24.84
2022-09-27T12:52:03.904Z,24.69
2022-09-27T12:57:13.622Z,24.46
2022-09-27T13:02:57.440Z,24.36
2022-09-27T13:08:19.761Z,24.21
2022-09-27T13:13:22.344Z,24.04
2022-09-27T13:18:32.108Z,24.13
2022-09-27T13:24:03.762Z,24.23
2022-09-27T13:29:39.560Z,24.45
2022-09-27T13:34:43.695Z,24.52
2022-09-27T13:40:11.821Z,24.80
2022-09-27T13:45:29.399Z,25.00
2022-09-27T13:50:47.496Z,25.11
2022-09-27T13:55:51.194Z,25.04
2022-09-27T14:00:59.813Z,25.02
2022-09-27T14:06:08.442Z,25.18
2022-09-27T14:11:15.493Z,25.45
2022-09-27T14:16:18.127Z,25.70
2022-09-27T14:21:23.966Z,25.82
2022-09-27T14:26:43.919Z,25.96
2022-09-27T14:31:42.913Z,25.98
2022-09-27T14:37:17.697Z,26.03
2022-09-27T14:42:33.032Z,26.00
2022-09-27T14:47:31.986Z,25.90
2022-09-27T14:52:33.270Z,25.73
2022-09-27T14:57:35.460Z,25.56
2022-09-27T15:02:34.628Z,25.35
2022-09-27T15:07:33.468Z,25.23
2022-09-27T15:12:35.712Z,25.09
2022-09-27T15:17:43.549Z,24.92
2022-09-27T15:22:45.035Z,24.70
2022-09-27T15:27:49.194Z,24.53
2022-09-27T15:32:53.544Z,24.40
2022-09-27T15:37:53.043Z,24.22
2022-09-27T15:42:58.649Z,24.00
2022-09-27T15:47:57.535Z,23.91
2022-09-27T15:52:57.672Z,23.84
2022-09-27T15:58:02.192Z,23.82
2022-09-27T16:03:01.102Z,23.66
2022-09-27T16:08:00.120Z,23.60
2022-09-27T16:13:00.262Z,23.56
2022-09-27T16:17:58.984Z,23.59
2022-09-27T16:22:58.090Z,23.55
2022-09-27T16:28:00.441Z,23.43
2022-09-27T16:32:59.684Z,23.29
2022-09-27T16:37:59.030Z,23.12
2022-09-27T16:42:59.306Z,22.94
2022-09-27T16:47:58.027Z,22.68
2022-09-27T16:52:57.047Z,22.61
2022-09-27T16:57:58.635Z,22.60
2022-09-27T17:02:58.721Z,22.56
2022-09-27T17:07:57.630Z,22.51
2022-09-27T17:12:57.331Z,22.44
2022-09-27T17:17:59.930Z,22.39
2022-09-27T17:22:59.067Z,22.27
2022-09-27T17:27:58.434Z,22.06
2022-09-27T17:32:58.204Z,21.97
2022-09-27T17:37:58.338Z,21.91
2022-09-27T17:42:57.244Z,21.80
2022-09-27T17:48:13.719Z,21.57
2022-09-27T17:53:14.003Z,21.33
2022-09-27T17:58:12.758Z,21.26
2022-09-27T18:03:11.583Z,21.34
2022-09-27T18:08:10.482Z,21.41
2022-09-27T18:13:12.964Z,21.45
2022-09-27T18:18:14.083Z,21.46
2022-09-27T18:23:12.894Z,21.42
2022-09-27T18:28:14.861Z,21.37
2022-09-27T18:33:15.746Z,21.24
2022-09-27T18:38:17.165Z,21.21
2022-09-27T18:43:18.615Z,21.28
2022-09-27T18:48:17.459Z,21.27
2022-09-27T18:53:16.160Z,21.29
2022-09-27T18:58:16.518Z,21.28
2022-09-27T19:03:17.214Z,21.29
2022-09-27T19:08:18.141Z,21.30
2022-09-27T19:13:16.964Z,21.20
2022-09-27T19:18:17.127Z,21.11
2022-09-27T19:23:15.874Z,21.14
2022-09-27T19:28:14.650Z,21.15
2022-09-27T19:33:15.450Z,21.12
2022-09-27T19:38:15.662Z,21.07
2022-09-27T19:43:14.337Z,21.08
2022-09-27T19:48:13.034Z,21.10
2022-09-27T19:53:12.118Z,20.57
2022-09-27T19:58:12.318Z,20.09
2022-09-27T20:03:11.021Z,19.53
2022-09-27T20:08:09.857Z,19.47
2022-09-27T20:13:08.581Z,19.68
2022-09-27T20:18:10.911Z,19.73
2022-09-27T20:23:09.658Z,19.70
2022-09-27T20:28:08.827Z,19.74
2022-09-27T20:33:26.366Z,19.81
2022-09-27T20:38:25.117Z,19.84
2022-09-27T20:43:26.519Z,19.86
2022-09-27T20:48:26.635Z,19.83
2022-09-27T20:53:26.932Z,19.82
2022-09-27T20:58:26.239Z,19.78
2022-09-27T21:03:26.507Z,19.71
2022-09-27T21:08:25.654Z,19.63
2022-09-27T21:13:24.401Z,19.48
2022-09-27T21:18:23.113Z,19.28
2022-09-27T21:23:23.334Z,19.26
2022-09-27T21:28:22.061Z,19.12
2022-09-27T21:33:20.906Z,19.12
2022-09-27T21:38:19.614Z,18.97
2022-09-27T21:43:19.751Z,19.01
2022-09-27T21:48:18.450Z,19.04
2022-09-27T21:53:17.350Z,19.04
2022-09-27T21:58:16.204Z,19.03
2022-09-27T22:03:16.412Z,19.02
2022-09-27T22:08:15.230Z,18.98
2022-09-27T22:13:14.191Z,18.92
2022-09-27T22:18:12.914Z,18.76
2022-09-27T22:23:13.492Z,18.81
2022-09-27T22:28:12.225Z,18.75
2022-09-27T22:33:10.977Z,18.59
2022-09-27T22:38:09.684Z,18.52
2022-09-27T22:43:09.983Z,18.36
2022-09-27T22:48:08.762Z,18.38
2022-09-27T22:53:08.043Z,18.44
2022-09-27T22:58:06.908Z,18.42
2022-09-27T23:03:07.082Z,18.43
2022-09-27T23:08:06.105Z,18.43
2022-09-27T23:13:05.261Z,18.40
2022-09-27T23:18:04.032Z,18.27
2022-09-27T23:23:04.128Z,18.22
2022-09-27T23:28:03.037Z,18.25
2022-09-27T23:33:01.869Z,18.27
2022-09-27T23:38:01.448Z,18.15
2022-09-27T23:43:01.650Z,18.17
2022-09-27T23:48:00.370Z,18.11
2022-09-27T23:52:59.604Z,18.10
2022-09-27T23:57:58.324Z,18.15
